sensor_id;sensor_type;location;lat;lon;timestamp;P1;durP1;ratioP1;P2;durP2;ratioP2
13580;SDS011;6861;46.170;7.222;2023-04-15T00:01:12;5.70;;;1.20;;
13580;SDS011;6861;46.170;7.222;2023-04-15T00:03:45;3.60;;;1.00;;
13580;SDS011;6861;46.170;7.222;2023-04-15T00:06:15;3.50;;;1.27;;
13580;SDS011;6861;46.170;7.222;2023-04-15T00:08:43;2.72;;;1.10;;
13580;SDS011;6861;46.170;7.222;2023-04-15T00:11:12;1.55;;;0.98;;
13580;SDS011;6861;46.170;7.222;2023-04-15T00:13:40;1.42;;;0.90;;
13580;SDS011;6861;46.170;7.222;2023-04-15T00:16:08;2.83;;;0.82;;
13580;SDS011;6861;46.170;7.222;2023-04-15T00:18:37;1.48;;;0.98;;
13580;SDS011;6861;46.170;7.222;2023-04-15T00:21:05;1.75;;;0.80;;
13580;SDS011;6861;46.170;7.222;2023-04-15T00:23:35;3.30;;;1.00;;
13580;SDS011;6861;46.170;7.222;2023-04-15T00:26:04;3.13;;;1.20;;
13580;SDS011;6861;46.170;7.222;2023-04-15T00:28:32;1.95;;;0.90;;
13580;SDS011;6861;46.170;7.222;2023-04-15T00:31:01;2.30;;;0.88;;
13580;SDS011;6861;46.170;7.222;2023-04-15T00:33:29;2.60;;;0.70;;
13580;SDS011;6861;46.170;7.222;2023-04-15T00:35:58;1.40;;;0.90;;
13580;SDS011;6861;46.170;7.222;2023-04-15T00:38:26;2.45;;;1.10;;
13580;SDS011;6861;46.170;7.222;2023-04-15T00:40:55;1.75;;;0.90;;
13580;SDS011;6861;46.170;7.222;2023-04-15T00:43:24;2.55;;;1.00;;
13580;SDS011;6861;46.170;7.222;2023-04-15T00:45:53;4.30;;;1.40;;
13580;SDS011;6861;46.170;7.222;2023-04-15T00:48:23;1.45;;;0.90;;
13580;SDS011;6861;46.170;7.222;2023-04-15T00:50:53;2.90;;;1.00;;
13580;SDS011;6861;46.170;7.222;2023-04-15T00:53:21;3.63;;;0.80;;
13580;SDS011;6861;46.170;7.222;2023-04-15T00:55:49;1.65;;;0.90;;
13580;SDS011;6861;46.170;7.222;2023-04-15T00:58:19;1.88;;;0.80;;
13580;SDS011;6861;46.170;7.222;2023-04-15T01:00:47;1.67;;;0.95;;
13580;SDS011;6861;46.170;7.222;2023-04-15T01:03:19;2.03;;;1.02;;
13580;SDS011;6861;46.170;7.222;2023-04-15T01:05:48;3.35;;;1.02;;
13580;SDS011;6861;46.170;7.222;2023-04-15T01:08:18;3.10;;;1.10;;
13580;SDS011;6861;46.170;7.222;2023-04-15T01:10:46;1.48;;;0.80;;
13580;SDS011;6861;46.170;7.222;2023-04-15T01:13:14;4.05;;;1.02;;
13580;SDS011;6861;46.170;7.222;2023-04-15T01:15:44;2.30;;;0.73;;
13580;SDS011;6861;46.170;7.222;2023-04-15T01:18:12;1.65;;;0.90;;
13580;SDS011;6861;46.170;7.222;2023-04-15T01:20:41;4.47;;;1.10;;
13580;SDS011;6861;46.170;7.222;2023-04-15T01:23:09;1.15;;;0.70;;
13580;SDS011;6861;46.170;7.222;2023-04-15T01:25:38;2.33;;;1.10;;
13580;SDS011;6861;46.170;7.222;2023-04-15T01:28:08;2.25;;;0.90;;
13580;SDS011;6861;46.170;7.222;2023-04-15T01:30:37;1.90;;;0.90;;
13580;SDS011;6861;46.170;7.222;2023-04-15T01:33:05;2.53;;;0.98;;
13580;SDS011;6861;46.170;7.222;2023-04-15T01:35:33;2.67;;;0.80;;
13580;SDS011;6861;46.170;7.222;2023-04-15T01:38:02;4.72;;;0.80;;
13580;SDS011;6861;46.170;7.222;2023-04-15T01:40:32;2.45;;;0.98;;
13580;SDS011;6861;46.170;7.222;2023-04-15T01:43:02;1.10;;;0.90;;
13580;SDS011;6861;46.170;7.222;2023-04-15T01:45:30;2.85;;;1.08;;
13580;SDS011;6861;46.170;7.222;2023-04-15T01:47:59;1.15;;;0.60;;
13580;SDS011;6861;46.170;7.222;2023-04-15T01:50:27;1.73;;;1.00;;
13580;SDS011;6861;46.170;7.222;2023-04-15T01:52:55;1.13;;;0.73;;
13580;SDS011;6861;46.170;7.222;2023-04-15T01:55:24;2.47;;;0.80;;
13580;SDS011;6861;46.170;7.222;2023-04-15T01:57:52;2.53;;;0.90;;
13580;SDS011;6861;46.170;7.222;2023-04-15T02:00:22;2.08;;;1.00;;
13580;SDS011;6861;46.170;7.222;2023-04-15T02:02:50;1.27;;;0.73;;
13580;SDS011;6861;46.170;7.222;2023-04-15T02:05:18;1.48;;;0.80;;
13580;SDS011;6861;46.170;7.222;2023-04-15T02:07:47;1.33;;;0.60;;
13580;SDS011;6861;46.170;7.222;2023-04-15T02:10:15;3.35;;;0.82;;
13580;SDS011;6861;46.170;7.222;2023-04-15T02:12:43;2.63;;;0.80;;
13580;SDS011;6861;46.170;7.222;2023-04-15T02:15:11;1.50;;;0.73;;
13580;SDS011;6861;46.170;7.222;2023-04-15T02:17:41;1.45;;;0.77;;
13580;SDS011;6861;46.170;7.222;2023-04-15T02:20:11;1.65;;;0.73;;
13580;SDS011;6861;46.170;7.222;2023-04-15T02:22:39;2.92;;;0.80;;
13580;SDS011;6861;46.170;7.222;2023-04-15T02:25:08;2.60;;;0.90;;
13580;SDS011;6861;46.170;7.222;2023-04-15T02:27:37;2.53;;;1.08;;
13580;SDS011;6861;46.170;7.222;2023-04-15T02:30:05;1.33;;;0.75;;
13580;SDS011;6861;46.170;7.222;2023-04-15T02:32:34;0.95;;;0.80;;
13580;SDS011;6861;46.170;7.222;2023-04-15T02:35:05;2.92;;;0.75;;
13580;SDS011;6861;46.170;7.222;2023-04-15T02:37:35;1.55;;;0.68;;
13580;SDS011;6861;46.170;7.222;2023-04-15T02:40:08;4.22;;;1.30;;
13580;SDS011;6861;46.170;7.222;2023-04-15T02:42:38;2.72;;;1.10;;
13580;SDS011;6861;46.170;7.222;2023-04-15T02:45:07;3.25;;;1.23;;
13580;SDS011;6861;46.170;7.222;2023-04-15T02:47:35;1.75;;;0.80;;
13580;SDS011;6861;46.170;7.222;2023-04-15T02:50:09;2.58;;;1.73;;
13580;SDS011;6861;46.170;7.222;2023-04-15T02:52:38;3.08;;;1.20;;
13580;SDS011;6861;46.170;7.222;2023-04-15T02:55:07;3.03;;;1.00;;
13580;SDS011;6861;46.170;7.222;2023-04-15T02:57:36;1.70;;;1.00;;
13580;SDS011;6861;46.170;7.222;2023-04-15T03:00:05;1.95;;;1.05;;
13580;SDS011;6861;46.170;7.222;2023-04-15T03:02:37;1.85;;;1.15;;
13580;SDS011;6861;46.170;7.222;2023-04-15T03:05:10;3.25;;;1.08;;
13580;SDS011;6861;46.170;7.222;2023-04-15T03:07:39;2.13;;;0.88;;
13580;SDS011;6861;46.170;7.222;2023-04-15T03:10:07;2.08;;;0.98;;
13580;SDS011;6861;46.170;7.222;2023-04-15T03:12:36;2.40;;;1.00;;
13580;SDS011;6861;46.170;7.222;2023-04-15T03:15:07;1.50;;;0.93;;
13580;SDS011;6861;46.170;7.222;2023-04-15T03:17:36;2.67;;;1.30;;
13580;SDS011;6861;46.170;7.222;2023-04-15T03:20:05;3.53;;;1.08;;
13580;SDS011;6861;46.170;7.222;2023-04-15T03:22:35;1.98;;;1.00;;
13580;SDS011;6861;46.170;7.222;2023-04-15T03:25:04;3.63;;;1.10;;
13580;SDS011;6861;46.170;7.222;2023-04-15T03:27:33;2.65;;;1.17;;
13580;SDS011;6861;46.170;7.222;2023-04-15T03:30:01;3.38;;;1.48;;
13580;SDS011;6861;46.170;7.222;2023-04-15T03:32:29;2.50;;;0.90;;
13580;SDS011;6861;46.170;7.222;2023-04-15T03:34:57;2.33;;;1.17;;
13580;SDS011;6861;46.170;7.222;2023-04-15T03:37:26;4.25;;;1.17;;
13580;SDS011;6861;46.170;7.222;2023-04-15T03:39:55;3.28;;;1.50;;
13580;SDS011;6861;46.170;7.222;2023-04-15T03:42:23;2.72;;;1.30;;
13580;SDS011;6861;46.170;7.222;2023-04-15T03:44:52;2.97;;;1.48;;
13580;SDS011;6861;46.170;7.222;2023-04-15T03:47:20;2.70;;;1.50;;
13580;SDS011;6861;46.170;7.222;2023-04-15T03:49:48;2.45;;;1.40;;
13580;SDS011;6861;46.170;7.222;2023-04-15T03:52:17;2.30;;;1.45;;
13580;SDS011;6861;46.170;7.222;2023-04-15T03:54:45;3.15;;;1.58;;
13580;SDS011;6861;46.170;7.222;2023-04-15T03:57:14;2.88;;;1.50;;
13580;SDS011;6861;46.170;7.222;2023-04-15T03:59:42;3.08;;;1.40;;
13580;SDS011;6861;46.170;7.222;2023-04-15T04:02:10;2.55;;;1.65;;
13580;SDS011;6861;46.170;7.222;2023-04-15T04:04:39;3.83;;;1.75;;
13580;SDS011;6861;46.170;7.222;2023-04-15T04:07:07;2.70;;;1.40;;
13580;SDS011;6861;46.170;7.222;2023-04-15T04:09:35;2.55;;;1.60;;
13580;SDS011;6861;46.170;7.222;2023-04-15T04:12:06;2.10;;;1.50;;
13580;SDS011;6861;46.170;7.222;2023-04-15T04:14:35;2.20;;;1.48;;
13580;SDS011;6861;46.170;7.222;2023-04-15T04:17:03;2.38;;;1.70;;
13580;SDS011;6861;46.170;7.222;2023-04-15T04:19:32;2.40;;;1.42;;
13580;SDS011;6861;46.170;7.222;2023-04-15T04:22:00;2.88;;;1.73;;
13580;SDS011;6861;46.170;7.222;2023-04-15T04:24:28;2.80;;;1.80;;
13580;SDS011;6861;46.170;7.222;2023-04-15T04:26:57;2.30;;;1.50;;
13580;SDS011;6861;46.170;7.222;2023-04-15T04:29:25;2.50;;;1.63;;
13580;SDS011;6861;46.170;7.222;2023-04-15T04:31:54;2.38;;;1.63;;
13580;SDS011;6861;46.170;7.222;2023-04-15T04:34:22;2.25;;;1.95;;
13580;SDS011;6861;46.170;7.222;2023-04-15T04:36:51;4.22;;;2.10;;
13580;SDS011;6861;46.170;7.222;2023-04-15T04:39:19;3.20;;;1.80;;
13580;SDS011;6861;46.170;7.222;2023-04-15T04:41:47;2.78;;;2.28;;
13580;SDS011;6861;46.170;7.222;2023-04-15T04:44:17;4.85;;;2.00;;
13580;SDS011;6861;46.170;7.222;2023-04-15T04:46:45;2.40;;;1.90;;
13580;SDS011;6861;46.170;7.222;2023-04-15T04:49:15;3.15;;;1.90;;
13580;SDS011;6861;46.170;7.222;2023-04-15T04:51:43;1.83;;;1.67;;
13580;SDS011;6861;46.170;7.222;2023-04-15T04:54:12;3.47;;;1.83;;
13580;SDS011;6861;46.170;7.222;2023-04-15T04:56:40;2.70;;;2.10;;
13580;SDS011;6861;46.170;7.222;2023-04-15T04:59:08;2.80;;;2.22;;
13580;SDS011;6861;46.170;7.222;2023-04-15T05:01:37;3.40;;;1.95;;
13580;SDS011;6861;46.170;7.222;2023-04-15T05:04:05;2.03;;;1.80;;
13580;SDS011;6861;46.170;7.222;2023-04-15T05:06:35;2.25;;;1.73;;
13580;SDS011;6861;46.170;7.222;2023-04-15T05:09:03;1.90;;;1.60;;
13580;SDS011;6861;46.170;7.222;2023-04-15T05:11:31;1.92;;;1.67;;
13580;SDS011;6861;46.170;7.222;2023-04-15T05:13:59;3.72;;;1.80;;
13580;SDS011;6861;46.170;7.222;2023-04-15T05:16:28;6.15;;;2.20;;
13580;SDS011;6861;46.170;7.222;2023-04-15T05:18:56;3.88;;;1.90;;
13580;SDS011;6861;46.170;7.222;2023-04-15T05:21:25;2.63;;;2.10;;
13580;SDS011;6861;46.170;7.222;2023-04-15T05:23:55;2.03;;;1.70;;
13580;SDS011;6861;46.170;7.222;2023-04-15T05:26:23;3.70;;;1.73;;
13580;SDS011;6861;46.170;7.222;2023-04-15T05:28:52;2.97;;;2.00;;
13580;SDS011;6861;46.170;7.222;2023-04-15T05:31:21;4.30;;;1.80;;
13580;SDS011;6861;46.170;7.222;2023-04-15T05:33:49;2.05;;;1.85;;
13580;SDS011;6861;46.170;7.222;2023-04-15T05:36:17;2.67;;;1.92;;
13580;SDS011;6861;46.170;7.222;2023-04-15T05:38:45;2.92;;;2.08;;
13580;SDS011;6861;46.170;7.222;2023-04-15T05:41:15;2.75;;;2.00;;
13580;SDS011;6861;46.170;7.222;2023-04-15T05:43:45;2.80;;;1.52;;
13580;SDS011;6861;46.170;7.222;2023-04-15T05:46:13;1.92;;;1.50;;
13580;SDS011;6861;46.170;7.222;2023-04-15T05:48:41;3.42;;;1.60;;
13580;SDS011;6861;46.170;7.222;2023-04-15T05:51:09;5.32;;;4.22;;
13580;SDS011;6861;46.170;7.222;2023-04-15T05:53:38;3.92;;;2.05;;
13580;SDS011;6861;46.170;7.222;2023-04-15T05:56:07;3.35;;;1.92;;
13580;SDS011;6861;46.170;7.222;2023-04-15T05:58:36;2.85;;;1.98;;
13580;SDS011;6861;46.170;7.222;2023-04-15T06:01:04;3.13;;;2.40;;
13580;SDS011;6861;46.170;7.222;2023-04-15T06:03:32;2.33;;;2.13;;
13580;SDS011;6861;46.170;7.222;2023-04-15T06:06:01;2.45;;;1.90;;
13580;SDS011;6861;46.170;7.222;2023-04-15T06:08:29;2.47;;;1.80;;
13580;SDS011;6861;46.170;7.222;2023-04-15T06:10:57;3.92;;;2.05;;
13580;SDS011;6861;46.170;7.222;2023-04-15T06:13:25;2.42;;;1.85;;
13580;SDS011;6861;46.170;7.222;2023-04-15T06:15:55;2.17;;;1.42;;
13580;SDS011;6861;46.170;7.222;2023-04-15T06:18:23;1.77;;;1.50;;
13580;SDS011;6861;46.170;7.222;2023-04-15T06:20:51;2.75;;;1.63;;
13580;SDS011;6861;46.170;7.222;2023-04-15T06:23:19;2.05;;;1.70;;
13580;SDS011;6861;46.170;7.222;2023-04-15T06:25:48;2.40;;;1.75;;
13580;SDS011;6861;46.170;7.222;2023-04-15T06:28:16;3.05;;;1.42;;
13580;SDS011;6861;46.170;7.222;2023-04-15T06:30:44;2.25;;;1.40;;
13580;SDS011;6861;46.170;7.222;2023-04-15T06:33:14;1.58;;;1.48;;
13580;SDS011;6861;46.170;7.222;2023-04-15T06:35:42;3.60;;;1.55;;
13580;SDS011;6861;46.170;7.222;2023-04-15T06:38:10;3.30;;;1.30;;
13580;SDS011;6861;46.170;7.222;2023-04-15T06:40:38;2.22;;;1.40;;
13580;SDS011;6861;46.170;7.222;2023-04-15T06:43:06;3.50;;;1.50;;
13580;SDS011;6861;46.170;7.222;2023-04-15T06:45:35;2.20;;;1.50;;
13580;SDS011;6861;46.170;7.222;2023-04-15T06:48:03;3.42;;;1.52;;
13580;SDS011;6861;46.170;7.222;2023-04-15T06:50:33;1.70;;;1.40;;
13580;SDS011;6861;46.170;7.222;2023-04-15T06:53:02;3.88;;;1.30;;
13580;SDS011;6861;46.170;7.222;2023-04-15T06:55:30;1.25;;;1.15;;
13580;SDS011;6861;46.170;7.222;2023-04-15T06:57:59;3.70;;;1.38;;
13580;SDS011;6861;46.170;7.222;2023-04-15T07:00:27;3.30;;;1.23;;
13580;SDS011;6861;46.170;7.222;2023-04-15T07:02:56;2.13;;;1.40;;
13580;SDS011;6861;46.170;7.222;2023-04-15T07:05:24;2.00;;;1.35;;
13580;SDS011;6861;46.170;7.222;2023-04-15T07:07:54;3.53;;;1.38;;
13580;SDS011;6861;46.170;7.222;2023-04-15T07:10:22;3.42;;;1.60;;
13580;SDS011;6861;46.170;7.222;2023-04-15T07:12:51;2.80;;;1.60;;
13580;SDS011;6861;46.170;7.222;2023-04-15T07:15:19;4.40;;;1.88;;
13580;SDS011;6861;46.170;7.222;2023-04-15T07:17:47;1.70;;;1.15;;
13580;SDS011;6861;46.170;7.222;2023-04-15T07:20:16;3.38;;;1.38;;
13580;SDS011;6861;46.170;7.222;2023-04-15T07:22:44;1.80;;;1.27;;
13580;SDS011;6861;46.170;7.222;2023-04-15T07:25:13;2.50;;;1.40;;
13580;SDS011;6861;46.170;7.222;2023-04-15T07:27:43;2.47;;;1.20;;
13580;SDS011;6861;46.170;7.222;2023-04-15T07:30:11;2.58;;;1.38;;
13580;SDS011;6861;46.170;7.222;2023-04-15T07:32:39;2.00;;;1.33;;
13580;SDS011;6861;46.170;7.222;2023-04-15T07:35:08;1.90;;;1.23;;
13580;SDS011;6861;46.170;7.222;2023-04-15T07:37:37;1.52;;;1.20;;
13580;SDS011;6861;46.170;7.222;2023-04-15T07:40:06;2.85;;;1.40;;
13580;SDS011;6861;46.170;7.222;2023-04-15T07:42:36;1.92;;;1.40;;
13580;SDS011;6861;46.170;7.222;2023-04-15T07:45:07;3.70;;;1.30;;
13580;SDS011;6861;46.170;7.222;2023-04-15T07:47:35;3.05;;;1.20;;
13580;SDS011;6861;46.170;7.222;2023-04-15T07:50:04;3.00;;;1.45;;
13580;SDS011;6861;46.170;7.222;2023-04-15T07:52:33;3.00;;;1.40;;
13580;SDS011;6861;46.170;7.222;2023-04-15T07:55:05;2.63;;;1.15;;
13580;SDS011;6861;46.170;7.222;2023-04-15T07:57:36;1.77;;;1.30;;
13580;SDS011;6861;46.170;7.222;2023-04-15T08:00:05;1.75;;;0.95;;
13580;SDS011;6861;46.170;7.222;2023-04-15T08:02:34;2.00;;;1.38;;
13580;SDS011;6861;46.170;7.222;2023-04-15T08:05:06;2.38;;;1.80;;
13580;SDS011;6861;46.170;7.222;2023-04-15T08:07:37;2.85;;;1.45;;
13580;SDS011;6861;46.170;7.222;2023-04-15T08:10:18;9.50;;;5.15;;
13580;SDS011;6861;46.170;7.222;2023-04-15T08:12:48;6.18;;;3.63;;
13580;SDS011;6861;46.170;7.222;2023-04-15T08:15:19;4.47;;;2.92;;
13580;SDS011;6861;46.170;7.222;2023-04-15T08:17:51;6.38;;;4.43;;
13580;SDS011;6861;46.170;7.222;2023-04-15T08:20:23;5.80;;;4.20;;
13580;SDS011;6861;46.170;7.222;2023-04-15T08:22:56;5.38;;;3.28;;
13580;SDS011;6861;46.170;7.222;2023-04-15T08:25:25;8.68;;;6.28;;
13580;SDS011;6861;46.170;7.222;2023-04-15T08:27:55;22.52;;;14.05;;
13580;SDS011;6861;46.170;7.222;2023-04-15T08:30:24;28.50;;;17.08;;
13580;SDS011;6861;46.170;7.222;2023-04-15T08:32:53;19.58;;;11.00;;
13580;SDS011;6861;46.170;7.222;2023-04-15T08:35:23;15.90;;;10.13;;
13580;SDS011;6861;46.170;7.222;2023-04-15T08:37:51;10.27;;;5.53;;
13580;SDS011;6861;46.170;7.222;2023-04-15T08:40:20;33.50;;;19.48;;
13580;SDS011;6861;46.170;7.222;2023-04-15T08:42:53;39.42;;;19.08;;
13580;SDS011;6861;46.170;7.222;2023-04-15T08:45:27;32.92;;;16.25;;
13580;SDS011;6861;46.170;7.222;2023-04-15T08:47:56;9.27;;;6.38;;
13580;SDS011;6861;46.170;7.222;2023-04-15T08:50:25;10.35;;;6.20;;
13580;SDS011;6861;46.170;7.222;2023-04-15T08:52:57;8.48;;;5.85;;
13580;SDS011;6861;46.170;7.222;2023-04-15T08:55:27;4.82;;;3.50;;
13580;SDS011;6861;46.170;7.222;2023-04-15T08:58:01;1.73;;;1.15;;
13580;SDS011;6861;46.170;7.222;2023-04-15T09:00:29;4.30;;;1.98;;
13580;SDS011;6861;46.170;7.222;2023-04-15T09:02:58;1.52;;;1.08;;
13580;SDS011;6861;46.170;7.222;2023-04-15T09:05:29;1.77;;;1.05;;
13580;SDS011;6861;46.170;7.222;2023-04-15T09:07:58;1.80;;;1.52;;
13580;SDS011;6861;46.170;7.222;2023-04-15T09:10:27;0.73;;;0.50;;
13580;SDS011;6861;46.170;7.222;2023-04-15T09:12:55;2.00;;;1.20;;
13580;SDS011;6861;46.170;7.222;2023-04-15T09:15:25;3.35;;;2.45;;
13580;SDS011;6861;46.170;7.222;2023-04-15T09:17:55;5.25;;;3.38;;
13580;SDS011;6861;46.170;7.222;2023-04-15T09:20:23;12.02;;;9.75;;
13580;SDS011;6861;46.170;7.222;2023-04-15T09:22:51;4.95;;;4.45;;
13580;SDS011;6861;46.170;7.222;2023-04-15T09:25:29;2.70;;;2.28;;
13580;SDS011;6861;46.170;7.222;2023-04-15T09:28:00;6.95;;;3.80;;
13580;SDS011;6861;46.170;7.222;2023-04-15T09:30:31;3.53;;;2.17;;
13580;SDS011;6861;46.170;7.222;2023-04-15T09:33:00;1.90;;;0.73;;
13580;SDS011;6861;46.170;7.222;2023-04-15T09:35:33;6.07;;;5.00;;
13580;SDS011;6861;46.170;7.222;2023-04-15T09:38:03;13.75;;;8.27;;
13580;SDS011;6861;46.170;7.222;2023-04-15T09:40:33;3.85;;;2.95;;
13580;SDS011;6861;46.170;7.222;2023-04-15T09:43:02;4.80;;;3.80;;
13580;SDS011;6861;46.170;7.222;2023-04-15T09:45:32;1.88;;;0.60;;
13580;SDS011;6861;46.170;7.222;2023-04-15T09:48:13;2.35;;;1.60;;
13580;SDS011;6861;46.170;7.222;2023-04-15T09:50:43;4.63;;;3.50;;
13580;SDS011;6861;46.170;7.222;2023-04-15T09:53:14;7.22;;;6.53;;
13580;SDS011;6861;46.170;7.222;2023-04-15T09:55:44;4.72;;;4.22;;
13580;SDS011;6861;46.170;7.222;2023-04-15T09:58:17;2.90;;;1.40;;
13580;SDS011;6861;46.170;7.222;2023-04-15T10:00:47;4.97;;;3.55;;
13580;SDS011;6861;46.170;7.222;2023-04-15T10:03:17;5.55;;;3.42;;
13580;SDS011;6861;46.170;7.222;2023-04-15T10:05:48;3.75;;;2.75;;
13580;SDS011;6861;46.170;7.222;2023-04-15T10:08:18;3.65;;;1.40;;
13580;SDS011;6861;46.170;7.222;2023-04-15T10:10:49;2.63;;;2.17;;
13580;SDS011;6861;46.170;7.222;2023-04-15T10:13:18;2.15;;;1.73;;
13580;SDS011;6861;46.170;7.222;2023-04-15T10:15:50;1.58;;;0.88;;
13580;SDS011;6861;46.170;7.222;2023-04-15T10:18:24;7.05;;;3.75;;
13580;SDS011;6861;46.170;7.222;2023-04-15T10:20:53;2.15;;;0.73;;
13580;SDS011;6861;46.170;7.222;2023-04-15T10:23:22;0.73;;;0.50;;
13580;SDS011;6861;46.170;7.222;2023-04-15T10:25:51;0.63;;;0.50;;
13580;SDS011;6861;46.170;7.222;2023-04-15T10:28:20;0.90;;;0.60;;
13580;SDS011;6861;46.170;7.222;2023-04-15T10:30:50;0.60;;;0.50;;
13580;SDS011;6861;46.170;7.222;2023-04-15T10:33:20;0.60;;;0.40;;
13580;SDS011;6861;46.170;7.222;2023-04-15T10:35:50;0.70;;;0.35;;
13580;SDS011;6861;46.170;7.222;2023-04-15T10:38:30;1.33;;;0.55;;
13580;SDS011;6861;46.170;7.222;2023-04-15T10:41:15;1.08;;;0.80;;
13580;SDS011;6861;46.170;7.222;2023-04-15T10:43:47;0.70;;;0.60;;
13580;SDS011;6861;46.170;7.222;2023-04-15T10:46:20;1.10;;;1.00;;
13580;SDS011;6861;46.170;7.222;2023-04-15T10:48:50;0.90;;;0.70;;
13580;SDS011;6861;46.170;7.222;2023-04-15T10:51:25;1.30;;;0.50;;
13580;SDS011;6861;46.170;7.222;2023-04-15T10:53:56;0.80;;;0.50;;
13580;SDS011;6861;46.170;7.222;2023-04-15T10:56:27;0.70;;;0.50;;
13580;SDS011;6861;46.170;7.222;2023-04-15T10:58:57;0.30;;;0.30;;
13580;SDS011;6861;46.170;7.222;2023-04-15T11:07:34;0.50;;;0.30;;
13580;SDS011;6861;46.170;7.222;2023-04-15T11:13:22;0.40;;;0.30;;
13580;SDS011;6861;46.170;7.222;2023-04-15T11:15:55;1.95;;;0.50;;
13580;SDS011;6861;46.170;7.222;2023-04-15T11:18:32;0.98;;;0.50;;
13580;SDS011;6861;46.170;7.222;2023-04-15T11:21:02;0.50;;;0.40;;
13580;SDS011;6861;46.170;7.222;2023-04-15T11:23:32;2.10;;;1.90;;
13580;SDS011;6861;46.170;7.222;2023-04-15T11:26:02;1.02;;;0.60;;
13580;SDS011;6861;46.170;7.222;2023-04-15T11:28:35;0.82;;;0.40;;
13580;SDS011;6861;46.170;7.222;2023-04-15T11:31:05;0.70;;;0.70;;
13580;SDS011;6861;46.170;7.222;2023-04-15T11:33:38;0.95;;;0.60;;
13580;SDS011;6861;46.170;7.222;2023-04-15T11:36:12;0.77;;;0.40;;
13580;SDS011;6861;46.170;7.222;2023-04-15T11:38:41;1.08;;;0.90;;
13580;SDS011;6861;46.170;7.222;2023-04-15T11:41:11;1.48;;;1.25;;
13580;SDS011;6861;46.170;7.222;2023-04-15T11:43:39;1.17;;;0.60;;
13580;SDS011;6861;46.170;7.222;2023-04-15T11:46:08;1.55;;;0.60;;
13580;SDS011;6861;46.170;7.222;2023-04-15T11:48:40;3.78;;;0.70;;
13580;SDS011;6861;46.170;7.222;2023-04-15T11:51:09;2.08;;;1.20;;
13580;SDS011;6861;46.170;7.222;2023-04-15T11:53:39;1.40;;;1.00;;
13580;SDS011;6861;46.170;7.222;2023-04-15T11:56:10;0.90;;;0.80;;
13580;SDS011;6861;46.170;7.222;2023-04-15T11:58:43;0.82;;;0.68;;
13580;SDS011;6861;46.170;7.222;2023-04-15T12:01:12;3.30;;;1.92;;
13580;SDS011;6861;46.170;7.222;2023-04-15T12:03:42;1.75;;;1.20;;
13580;SDS011;6861;46.170;7.222;2023-04-15T12:06:13;2.97;;;1.10;;
13580;SDS011;6861;46.170;7.222;2023-04-15T12:11:35;3.47;;;0.80;;
13580;SDS011;6861;46.170;7.222;2023-04-15T12:14:21;3.58;;;0.70;;
13580;SDS011;6861;46.170;7.222;2023-04-15T12:16:52;1.92;;;0.50;;
13580;SDS011;6861;46.170;7.222;2023-04-15T12:19:25;1.90;;;0.50;;
13580;SDS011;6861;46.170;7.222;2023-04-15T12:21:56;0.52;;;0.50;;
13580;SDS011;6861;46.170;7.222;2023-04-15T12:24:26;0.75;;;0.50;;
13580;SDS011;6861;46.170;7.222;2023-04-15T12:27:00;0.55;;;0.35;;
13580;SDS011;6861;46.170;7.222;2023-04-15T12:29:30;0.43;;;0.40;;
13580;SDS011;6861;46.170;7.222;2023-04-15T12:32:03;0.90;;;0.40;;
13580;SDS011;6861;46.170;7.222;2023-04-15T12:34:35;0.40;;;0.30;;
13580;SDS011;6861;46.170;7.222;2023-04-15T12:37:05;1.33;;;0.47;;
13580;SDS011;6861;46.170;7.222;2023-04-15T12:39:36;0.82;;;0.20;;
13580;SDS011;6861;46.170;7.222;2023-04-15T12:42:05;0.95;;;0.38;;
13580;SDS011;6861;46.170;7.222;2023-04-15T12:44:34;0.45;;;0.22;;
13580;SDS011;6861;46.170;7.222;2023-04-15T12:47:03;0.57;;;0.20;;
13580;SDS011;6861;46.170;7.222;2023-04-15T12:49:32;0.77;;;0.40;;
13580;SDS011;6861;46.170;7.222;2023-04-15T12:52:02;2.58;;;0.22;;
13580;SDS011;6861;46.170;7.222;2023-04-15T12:54:31;1.00;;;0.70;;
13580;SDS011;6861;46.170;7.222;2023-04-15T12:57:00;0.90;;;0.30;;
13580;SDS011;6861;46.170;7.222;2023-04-15T12:59:32;1.42;;;0.40;;
13580;SDS011;6861;46.170;7.222;2023-04-15T13:02:00;0.65;;;0.40;;
13580;SDS011;6861;46.170;7.222;2023-04-15T13:04:29;0.47;;;0.30;;
13580;SDS011;6861;46.170;7.222;2023-04-15T13:06:57;2.17;;;0.30;;
13580;SDS011;6861;46.170;7.222;2023-04-15T13:09:27;1.00;;;0.45;;
13580;SDS011;6861;46.170;7.222;2023-04-15T13:11:55;0.60;;;0.35;;
13580;SDS011;6861;46.170;7.222;2023-04-15T13:14:23;5.18;;;0.70;;
13580;SDS011;6861;46.170;7.222;2023-04-15T13:16:52;1.10;;;0.70;;
13580;SDS011;6861;46.170;7.222;2023-04-15T13:19:20;1.63;;;0.80;;
13580;SDS011;6861;46.170;7.222;2023-04-15T13:21:49;0.52;;;0.30;;
13580;SDS011;6861;46.170;7.222;2023-04-15T13:24:17;0.57;;;0.35;;
13580;SDS011;6861;46.170;7.222;2023-04-15T13:26:47;0.50;;;0.20;;
13580;SDS011;6861;46.170;7.222;2023-04-15T13:29:15;0.30;;;0.10;;
13580;SDS011;6861;46.170;7.222;2023-04-15T13:31:44;0.30;;;0.20;;
13580;SDS011;6861;46.170;7.222;2023-04-15T13:34:12;2.40;;;0.30;;
13580;SDS011;6861;46.170;7.222;2023-04-15T13:36:41;0.68;;;0.50;;
13580;SDS011;6861;46.170;7.222;2023-04-15T13:39:09;0.50;;;0.30;;
13580;SDS011;6861;46.170;7.222;2023-04-15T13:41:37;0.35;;;0.30;;
13580;SDS011;6861;46.170;7.222;2023-04-15T13:44:06;1.88;;;0.30;;
13580;SDS011;6861;46.170;7.222;2023-04-15T13:46:35;0.40;;;0.30;;
13580;SDS011;6861;46.170;7.222;2023-04-15T13:49:04;0.50;;;0.40;;
13580;SDS011;6861;46.170;7.222;2023-04-15T13:51:33;0.40;;;0.25;;
13580;SDS011;6861;46.170;7.222;2023-04-15T13:54:02;0.30;;;0.20;;
13580;SDS011;6861;46.170;7.222;2023-04-15T13:56:31;0.30;;;0.10;;
13580;SDS011;6861;46.170;7.222;2023-04-15T13:58:59;0.85;;;0.20;;
13580;SDS011;6861;46.170;7.222;2023-04-15T14:01:30;2.15;;;0.40;;
13580;SDS011;6861;46.170;7.222;2023-04-15T14:03:58;1.30;;;0.20;;
13580;SDS011;6861;46.170;7.222;2023-04-15T14:06:27;0.40;;;0.30;;
13580;SDS011;6861;46.170;7.222;2023-04-15T14:08:55;0.70;;;0.30;;
13580;SDS011;6861;46.170;7.222;2023-04-15T14:11:23;0.30;;;0.20;;
13580;SDS011;6861;46.170;7.222;2023-04-15T14:13:52;2.83;;;0.20;;
13580;SDS011;6861;46.170;7.222;2023-04-15T14:16:20;0.30;;;0.30;;
13580;SDS011;6861;46.170;7.222;2023-04-15T14:18:50;0.40;;;0.30;;
13580;SDS011;6861;46.170;7.222;2023-04-15T14:21:18;0.60;;;0.30;;
13580;SDS011;6861;46.170;7.222;2023-04-15T14:23:47;0.55;;;0.20;;
13580;SDS011;6861;46.170;7.222;2023-04-15T14:26:15;0.68;;;0.10;;
13580;SDS011;6861;46.170;7.222;2023-04-15T14:28:43;0.50;;;0.20;;
13580;SDS011;6861;46.170;7.222;2023-04-15T14:31:13;0.57;;;0.40;;
13580;SDS011;6861;46.170;7.222;2023-04-15T14:33:42;0.35;;;0.20;;
13580;SDS011;6861;46.170;7.222;2023-04-15T14:36:11;0.30;;;0.20;;
13580;SDS011;6861;46.170;7.222;2023-04-15T14:38:40;0.40;;;0.20;;
13580;SDS011;6861;46.170;7.222;2023-04-15T14:41:08;0.40;;;0.30;;
13580;SDS011;6861;46.170;7.222;2023-04-15T14:43:36;0.50;;;0.22;;
13580;SDS011;6861;46.170;7.222;2023-04-15T14:46:05;0.40;;;0.30;;
13580;SDS011;6861;46.170;7.222;2023-04-15T14:48:34;0.30;;;0.20;;
13580;SDS011;6861;46.170;7.222;2023-04-15T14:51:02;0.70;;;0.20;;
13580;SDS011;6861;46.170;7.222;2023-04-15T14:53:32;0.52;;;0.30;;
13580;SDS011;6861;46.170;7.222;2023-04-15T14:56:00;0.88;;;0.30;;
13580;SDS011;6861;46.170;7.222;2023-04-15T14:58:28;1.30;;;0.30;;
13580;SDS011;6861;46.170;7.222;2023-04-15T15:00:58;0.50;;;0.30;;
13580;SDS011;6861;46.170;7.222;2023-04-15T15:03:27;0.95;;;0.20;;
13580;SDS011;6861;46.170;7.222;2023-04-15T15:05:55;5.32;;;3.22;;
13580;SDS011;6861;46.170;7.222;2023-04-15T15:08:24;4.75;;;3.10;;
13580;SDS011;6861;46.170;7.222;2023-04-15T15:10:54;4.95;;;3.90;;
13580;SDS011;6861;46.170;7.222;2023-04-15T15:13:22;3.83;;;3.10;;
13580;SDS011;6861;46.170;7.222;2023-04-15T15:15:50;6.05;;;3.17;;
13580;SDS011;6861;46.170;7.222;2023-04-15T15:18:19;19.45;;;9.05;;
13580;SDS011;6861;46.170;7.222;2023-04-15T15:20:47;1.77;;;0.80;;
13580;SDS011;6861;46.170;7.222;2023-04-15T15:23:15;23.90;;;14.13;;
13580;SDS011;6861;46.170;7.222;2023-04-15T15:25:44;10.02;;;7.35;;